createdAt,value
2023-04-21T00:01:46.324Z,24.40
2023-04-21T00:04:14.107Z,20.30
2023-04-21T00:07:22.713Z,21.47
2023-04-21T00:09:49.656Z,24.27
2023-04-21T00:12:16.323Z,21.50
2023-04-21T00:14:43.097Z,21.80
2023-04-21T00:17:09.949Z,22.20
2023-04-21T00:19:58.919Z,22.33
2023-04-21T00:22:25.603Z,23.13
2023-04-21T00:24:53.302Z,20.90
2023-04-21T00:27:20.343Z,21.40
2023-04-21T00:29:47.330Z,23.03
2023-04-21T00:32:16.665Z,24.43
2023-04-21T00:38:43.074Z,21.33
2023-04-21T00:41:09.722Z,21.87
2023-04-21T00:47:38.382Z,21.37
2023-04-21T00:50:05.555Z,23.30
2023-04-21T00:52:33.531Z,23.53
2023-04-21T00:55:00.561Z,21.00
2023-04-21T00:57:28.631Z,23.57
2023-04-21T01:03:54.779Z,21.87
2023-04-21T01:06:21.518Z,20.77
2023-04-21T01:08:48.770Z,22.13
2023-04-21T01:11:17.098Z,21.57
2023-04-21T01:13:44.111Z,22.83
2023-04-21T01:20:13.958Z,25.17
2023-04-21T01:22:42.690Z,23.30
2023-04-21T01:25:09.917Z,24.17
2023-04-21T01:27:42.040Z,24.20
2023-04-21T01:30:10.306Z,25.83
2023-04-21T01:32:37.408Z,25.17
2023-04-21T01:35:04.516Z,23.37
2023-04-21T01:37:33.628Z,26.60
2023-04-21T01:40:05.319Z,24.37
2023-04-21T01:42:35.799Z,23.13
2023-04-21T01:45:02.975Z,23.70
2023-04-21T01:47:30.579Z,23.40
2023-04-21T01:49:57.225Z,25.30
2023-04-21T01:52:24.234Z,24.87
2023-04-21T01:54:53.936Z,24.57
2023-04-21T01:57:21.054Z,23.77
2023-04-21T01:59:49.645Z,22.83
2023-04-21T02:02:16.547Z,23.07
2023-04-21T02:08:44.291Z,23.20
2023-04-21T02:11:11.003Z,22.87
2023-04-21T02:13:55.395Z,22.90
2023-04-21T02:16:26.402Z,23.70
2023-04-21T02:19:19.695Z,21.70
2023-04-21T02:21:47.266Z,22.53
2023-04-21T02:24:13.976Z,22.97
2023-04-21T02:26:40.687Z,22.70
2023-04-21T02:29:48.282Z,23.43
2023-04-21T02:32:24.842Z,21.90
2023-04-21T02:34:54.110Z,22.93
2023-04-21T02:37:21.156Z,22.40
2023-04-21T02:39:48.037Z,21.47
2023-04-21T02:42:14.771Z,21.63
2023-04-21T02:44:43.137Z,20.83
2023-04-21T02:51:13.754Z,23.00
2023-04-21T02:53:41.898Z,20.10
2023-04-21T02:56:09.557Z,23.33
2023-04-21T02:58:36.914Z,21.87
2023-04-21T03:01:04.961Z,23.97
2023-04-21T03:03:32.923Z,23.50
2023-04-21T03:06:02.102Z,23.10
2023-04-21T03:08:30.035Z,24.43
2023-04-21T03:15:48.821Z,23.47
2023-04-21T03:18:16.604Z,22.97
2023-04-21T03:20:43.637Z,24.33
2023-04-21T03:23:10.675Z,26.27
2023-04-21T03:25:38.934Z,25.33
2023-04-21T03:28:06.065Z,27.47
2023-04-21T03:30:33.055Z,25.77
2023-04-21T03:33:06.148Z,27.93
2023-04-21T03:35:34.508Z,25.30
2023-04-21T03:38:28.670Z,25.93
2023-04-21T03:41:42.684Z,23.73
2023-04-21T03:49:05.102Z,26.97
2023-04-21T03:51:32.534Z,24.43
2023-04-21T03:54:24.461Z,24.87
2023-04-21T04:00:53.480Z,26.70
2023-04-21T04:03:23.219Z,28.93
2023-04-21T04:17:15.102Z,28.40
2023-04-21T04:19:41.900Z,28.03
2023-04-21T04:22:09.540Z,27.73
2023-04-21T04:24:36.645Z,30.73
2023-04-21T04:27:04.261Z,31.03
2023-04-21T04:29:39.818Z,29.03
2023-04-21T04:36:21.144Z,31.30
2023-04-21T04:39:50.995Z,34.50
2023-04-21T04:42:38.293Z,30.70
2023-04-21T04:49:29.153Z,29.03
2023-04-21T05:04:42.606Z,25.07
2023-04-21T05:07:09.553Z,24.40
2023-04-21T05:09:36.760Z,34.97
2023-04-21T05:12:04.331Z,34.77
2023-04-21T05:14:31.581Z,32.80
2023-04-21T05:16:58.721Z,31.50
2023-04-21T05:19:28.132Z,33.80
2023-04-21T05:22:01.916Z,34.27
2023-04-21T05:24:30.200Z,30.50
2023-04-21T05:26:57.127Z,29.80
2023-04-21T05:29:24.020Z,32.23
2023-04-21T05:36:20.252Z,29.07
2023-04-21T05:39:35.123Z,28.63
2023-04-21T05:42:02.643Z,31.63
2023-04-21T05:44:40.196Z,30.13
2023-04-21T05:47:08.160Z,30.47
2023-04-21T05:49:35.199Z,28.07
2023-04-21T05:52:02.091Z,30.53
2023-04-21T05:54:31.145Z,29.77
2023-04-21T05:56:58.290Z,30.63
2023-04-21T05:59:26.733Z,28.13
2023-04-21T06:01:53.664Z,29.53
2023-04-21T06:04:21.180Z,29.33
2023-04-21T06:06:48.486Z,27.50
2023-04-21T06:09:15.890Z,29.67
2023-04-21T06:11:42.809Z,28.90
2023-04-21T06:14:09.800Z,30.70
2023-04-21T06:16:38.965Z,27.37
2023-04-21T06:23:11.526Z,27.17
2023-04-21T06:25:38.315Z,27.37
2023-04-21T06:28:08.109Z,27.77
2023-04-21T06:30:35.672Z,26.10
2023-04-21T06:33:02.799Z,27.63
2023-04-21T06:35:32.170Z,25.23
2023-04-21T06:37:59.130Z,25.10
2023-04-21T06:43:40.644Z,24.57
2023-04-21T06:46:08.352Z,22.90
2023-04-21T06:48:35.918Z,24.50
2023-04-21T06:51:02.986Z,23.27
2023-04-21T06:53:30.029Z,24.33
2023-04-21T06:56:04.356Z,24.13
2023-04-21T06:58:31.360Z,24.07
2023-04-21T07:00:58.476Z,22.43
2023-04-21T07:03:26.907Z,19.33
2023-04-21T07:05:56.118Z,20.00
2023-04-21T07:08:23.174Z,21.57
2023-04-21T07:10:51.930Z,19.83
2023-04-21T07:13:37.284Z,21.23
2023-04-21T07:16:04.138Z,17.83
2023-04-21T07:18:34.883Z,18.00
2023-04-21T07:21:01.921Z,17.80
2023-04-21T07:23:28.829Z,15.83
2023-04-21T07:25:57.960Z,14.93
2023-04-21T07:28:24.961Z,16.90
2023-04-21T07:30:54.779Z,13.43
2023-04-21T07:34:10.320Z,11.53
2023-04-21T07:36:38.248Z,12.67
2023-04-21T07:39:05.664Z,13.60
2023-04-21T07:42:36.120Z,9.60
2023-04-21T07:48:33.469Z,10.67
2023-04-21T07:51:03.516Z,11.53
2023-04-21T07:53:31.199Z,12.23
2023-04-21T07:55:58.946Z,10.50
2023-04-21T07:58:25.918Z,9.37
2023-04-21T08:00:52.917Z,10.00
2023-04-21T08:03:22.914Z,9.67
2023-04-21T08:05:51.467Z,8.87
2023-04-21T08:08:20.864Z,8.87
2023-04-21T08:10:48.015Z,7.50
2023-04-21T08:13:15.095Z,8.27
2023-04-21T08:15:55.240Z,7.23
2023-04-21T08:18:23.688Z,7.85
2023-04-21T08:20:52.581Z,7.47
2023-04-21T08:23:21.990Z,7.30
2023-04-21T08:25:49.061Z,8.00
2023-04-21T08:28:16.181Z,8.20
2023-04-21T08:30:43.298Z,8.15
2023-04-21T08:33:13.962Z,6.15
2023-04-21T08:35:54.981Z,6.05
2023-04-21T08:38:28.610Z,5.20
2023-04-21T08:40:56.461Z,5.88
2023-04-21T08:47:24.595Z,5.88
2023-04-21T08:49:52.207Z,8.18
2023-04-21T08:52:36.645Z,4.65
2023-04-21T08:55:03.908Z,4.90
2023-04-21T08:57:31.753Z,5.18
2023-04-21T09:00:01.910Z,4.70
2023-04-21T09:02:29.148Z,4.15
2023-04-21T09:04:57.076Z,4.82
2023-04-21T09:07:32.537Z,4.32
2023-04-21T09:10:03.144Z,3.47
2023-04-21T09:12:30.456Z,3.78
2023-04-21T09:15:01.193Z,3.20
2023-04-21T09:17:55.605Z,3.25
2023-04-21T09:20:23.417Z,2.92
2023-04-21T09:22:51.473Z,2.42
2023-04-21T09:25:22.046Z,3.15
2023-04-21T09:27:48.976Z,2.40
2023-04-21T09:30:20.188Z,1.92
2023-04-21T09:32:49.787Z,2.50
2023-04-21T09:35:16.876Z,1.80
2023-04-21T09:37:44.761Z,2.75
2023-04-21T09:40:18.036Z,1.88
2023-04-21T09:42:58.270Z,2.03
2023-04-21T09:45:39.099Z,3.50
2023-04-21T09:48:10.270Z,2.38
2023-04-21T09:53:17.302Z,2.67
2023-04-21T09:55:48.531Z,2.67
2023-04-21T09:58:18.676Z,2.38
2023-04-21T10:00:46.468Z,1.63
2023-04-21T10:03:28.554Z,1.92
2023-04-21T10:05:56.078Z,1.67
2023-04-21T10:08:25.376Z,3.63
2023-04-21T10:10:53.236Z,1.50
2023-04-21T10:13:21.808Z,2.05
2023-04-21T10:15:48.880Z,0.95
2023-04-21T10:18:24.028Z,0.80
2023-04-21T10:21:06.603Z,1.33
2023-04-21T10:23:43.318Z,1.30
2023-04-21T10:26:44.676Z,1.08
2023-04-21T10:29:12.130Z,1.20
2023-04-21T10:31:52.046Z,1.48
2023-04-21T10:34:20.983Z,1.80
2023-04-21T10:36:54.459Z,1.00
2023-04-21T10:39:56.135Z,0.85
2023-04-21T10:42:27.947Z,0.70
2023-04-21T10:44:57.931Z,0.77
2023-04-21T10:47:30.510Z,1.63
2023-04-21T10:49:58.676Z,0.60
2023-04-21T10:52:35.900Z,0.60
2023-04-21T10:55:07.051Z,0.60
2023-04-21T10:57:35.618Z,0.90
2023-04-21T11:00:06.890Z,0.85
2023-04-21T11:02:38.114Z,0.60
2023-04-21T11:05:07.570Z,1.08
2023-04-21T11:07:36.973Z,1.00
2023-04-21T11:14:36.763Z,1.10
2023-04-21T11:17:07.993Z,1.10
2023-04-21T11:19:35.118Z,2.10
2023-04-21T11:22:01.906Z,1.00
2023-04-21T11:24:28.804Z,1.02
2023-04-21T11:27:32.652Z,1.20
2023-04-21T11:34:27.006Z,1.95
2023-04-21T11:37:57.155Z,2.15
2023-04-21T11:40:24.270Z,1.80
2023-04-21T11:47:37.876Z,1.60
2023-04-21T11:50:05.268Z,2.30
2023-04-21T11:52:34.531Z,2.63
2023-04-21T12:04:16.127Z,3.20
2023-04-21T12:07:13.827Z,4.70
2023-04-21T12:10:11.382Z,4.63
2023-04-21T12:13:31.543Z,5.05
2023-04-21T12:20:35.912Z,5.82
2023-04-21T12:23:02.821Z,6.38
2023-04-21T12:26:02.926Z,6.07
2023-04-21T12:28:30.006Z,6.75
2023-04-21T12:30:57.049Z,6.05
2023-04-21T12:33:26.180Z,7.93
2023-04-21T12:35:53.196Z,7.43
2023-04-21T12:38:20.240Z,7.82
2023-04-21T12:45:21.735Z,8.65
2023-04-21T12:52:55.448Z,10.07
2023-04-21T12:55:23.387Z,8.35
2023-04-21T12:58:19.130Z,11.52
2023-04-21T13:01:16.263Z,9.70
2023-04-21T13:03:43.371Z,9.73
2023-04-21T13:06:10.885Z,10.40
2023-04-21T13:08:38.035Z,10.38
2023-04-21T13:11:05.630Z,11.00
2023-04-21T13:13:33.176Z,9.95
2023-04-21T13:16:02.058Z,9.32
2023-04-21T13:18:35.134Z,7.65
2023-04-21T13:21:02.505Z,7.40
2023-04-21T13:23:29.526Z,10.35
2023-04-21T13:25:59.822Z,9.75
2023-04-21T13:28:27.004Z,7.45
2023-04-21T13:30:54.808Z,8.68
2023-04-21T13:33:40.693Z,8.25
2023-04-21T13:36:11.854Z,7.68
2023-04-21T13:38:40.941Z,8.40
2023-04-21T13:41:41.196Z,9.63
2023-04-21T13:44:09.933Z,9.07
2023-04-21T13:46:37.908Z,6.22
2023-04-21T13:49:05.114Z,6.35
2023-04-21T13:51:32.816Z,7.18
2023-04-21T13:53:59.830Z,6.82
2023-04-21T14:00:28.054Z,8.25
2023-04-21T14:02:56.059Z,6.88
2023-04-21T14:05:23.401Z,6.72
2023-04-21T14:07:50.692Z,7.25
2023-04-21T14:10:41.532Z,6.93
2023-04-21T14:13:11.110Z,7.38
2023-04-21T14:15:41.879Z,6.43
2023-04-21T14:18:08.867Z,8.88
2023-04-21T14:20:35.760Z,5.47
2023-04-21T14:23:02.825Z,6.45
2023-04-21T14:25:29.699Z,5.78
2023-04-21T14:32:07.007Z,5.43
2023-04-21T14:34:33.876Z,6.55
2023-04-21T14:37:01.340Z,7.28
2023-04-21T14:39:28.335Z,5.90
2023-04-21T14:42:02.916Z,9.57
2023-04-21T14:44:34.682Z,6.72
2023-04-21T14:47:09.760Z,7.40
2023-04-21T14:49:38.954Z,8.30
2023-04-21T14:52:08.553Z,8.35
2023-04-21T14:55:17.811Z,8.70
2023-04-21T14:57:47.264Z,6.32
2023-04-21T15:00:15.137Z,7.18
2023-04-21T15:02:47.259Z,7.03
2023-04-21T15:05:14.383Z,7.05
2023-04-21T15:07:41.245Z,9.95
2023-04-21T15:10:20.890Z,9.95
2023-04-21T15:12:47.780Z,8.55
2023-04-21T15:15:14.677Z,7.47
2023-04-21T15:17:42.873Z,8.55
2023-04-21T15:20:44.374Z,5.97
2023-04-21T15:23:12.555Z,8.80
2023-04-21T15:25:43.367Z,6.38
2023-04-21T15:28:10.346Z,5.55
2023-04-21T15:30:37.506Z,4.85
2023-04-21T15:33:04.730Z,4.97
2023-04-21T15:35:31.777Z,4.95
2023-04-21T15:37:58.802Z,4.70
2023-04-21T15:40:25.839Z,4.38
2023-04-21T15:42:52.788Z,4.32
2023-04-21T15:45:36.313Z,3.88
2023-04-21T15:48:03.204Z,7.55
2023-04-21T15:50:48.400Z,5.18
2023-04-21T15:53:16.112Z,5.07
2023-04-21T15:55:44.671Z,6.18
2023-04-21T15:58:13.694Z,5.93
2023-04-21T16:00:44.468Z,7.13
2023-04-21T16:03:19.074Z,5.70
2023-04-21T16:05:46.207Z,6.15
2023-04-21T16:08:18.321Z,6.78
2023-04-21T16:10:45.691Z,6.03
2023-04-21T16:13:12.704Z,5.53
2023-04-21T16:15:39.686Z,4.80
2023-04-21T16:18:07.051Z,3.88
2023-04-21T16:20:38.631Z,4.68
2023-04-21T16:23:09.298Z,4.85
2023-04-21T16:25:52.164Z,5.13
2023-04-21T16:28:19.016Z,5.10
2023-04-21T16:30:50.208Z,5.82
2023-04-21T16:33:28.521Z,7.00
2023-04-21T16:35:57.327Z,13.90
2023-04-21T16:38:24.828Z,10.98
2023-04-21T16:40:51.731Z,12.47
2023-04-21T16:43:18.645Z,12.17
2023-04-21T16:45:45.723Z,9.83
2023-04-21T16:48:12.855Z,6.60
2023-04-21T16:51:12.174Z,12.07
2023-04-21T16:53:58.669Z,9.80
2023-04-21T16:56:27.863Z,10.63
2023-04-21T16:59:01.066Z,9.67
2023-04-21T17:01:41.489Z,10.10
2023-04-21T17:13:34.561Z,8.03
2023-04-21T17:16:02.536Z,6.80
2023-04-21T17:18:32.856Z,8.67
2023-04-21T17:22:20.399Z,7.60
2023-04-21T17:29:27.007Z,8.00
2023-04-21T17:32:15.771Z,8.17
2023-04-21T17:35:04.695Z,6.73
2023-04-21T17:37:43.352Z,6.37
2023-04-21T17:40:32.616Z,6.85
2023-04-21T17:43:06.735Z,5.90
2023-04-21T17:45:33.550Z,6.82
2023-04-21T17:48:00.403Z,4.22
2023-04-21T17:50:28.075Z,4.53
2023-04-21T17:52:55.052Z,5.43
2023-04-21T17:55:22.758Z,6.05
2023-04-21T17:58:43.984Z,6.80
2023-04-21T18:05:59.793Z,5.03
2023-04-21T18:08:28.885Z,5.37
2023-04-21T18:11:09.066Z,5.67
2023-04-21T18:18:28.619Z,7.37
2023-04-21T18:20:55.961Z,5.37
2023-04-21T18:23:33.544Z,7.83
2023-04-21T18:26:08.723Z,6.13
2023-04-21T18:28:36.089Z,5.97
2023-04-21T18:31:03.782Z,5.50
2023-04-21T18:34:24.708Z,6.47
2023-04-21T18:36:57.708Z,5.13
2023-04-21T18:39:59.186Z,4.97
2023-04-21T18:42:49.518Z,5.83
2023-04-21T18:45:16.591Z,6.47
2023-04-21T18:47:45.673Z,5.63
2023-04-21T18:50:12.562Z,10.67
2023-04-21T18:52:39.468Z,17.73
2023-04-21T18:55:06.574Z,17.37
2023-04-21T18:57:33.643Z,18.07
2023-04-21T19:00:57.536Z,16.23
2023-04-21T19:03:25.315Z,7.53
2023-04-21T19:05:52.493Z,6.07
2023-04-21T19:08:30.367Z,15.23
2023-04-21T19:11:17.920Z,5.37
2023-04-21T19:14:09.096Z,16.13
2023-04-21T19:16:35.983Z,14.50
2023-04-21T19:19:04.164Z,15.17
2023-04-21T19:21:31.651Z,14.10
2023-04-21T19:27:58.169Z,8.07
2023-04-21T19:30:25.090Z,6.40
2023-04-21T19:36:59.306Z,8.57
2023-04-21T19:39:26.082Z,10.47
2023-04-21T19:41:52.913Z,10.30
2023-04-21T19:44:19.478Z,8.97
2023-04-21T19:50:49.215Z,9.40
2023-04-21T19:53:19.117Z,9.10
2023-04-21T19:55:58.329Z,8.60
2023-04-21T19:58:39.802Z,9.30
2023-04-21T20:01:08.052Z,9.30
2023-04-21T20:03:39.756Z,9.60
2023-04-21T20:06:06.657Z,8.83
2023-04-21T20:08:54.034Z,9.43
2023-04-21T20:11:21.231Z,8.00
2023-04-21T20:13:50.990Z,6.50
2023-04-21T20:16:20.864Z,7.57
2023-04-21T20:18:49.198Z,6.57
2023-04-21T20:21:15.941Z,7.80
2023-04-21T20:23:42.710Z,8.07
2023-04-21T20:26:09.773Z,7.50
2023-04-21T20:28:49.202Z,7.00
2023-04-21T20:39:15.447Z,9.10
2023-04-21T20:42:23.301Z,9.17
2023-04-21T20:44:50.461Z,6.77
2023-04-21T20:47:17.763Z,7.87
2023-04-21T20:49:45.072Z,6.67
2023-04-21T20:52:11.881Z,5.77
2023-04-21T20:54:41.913Z,5.43
2023-04-21T20:57:50.702Z,5.47
2023-04-21T21:00:18.349Z,4.67
2023-04-21T21:06:45.218Z,4.43
2023-04-21T21:09:12.216Z,5.20
2023-04-21T21:11:40.853Z,5.97
2023-04-21T21:14:26.351Z,6.10
2023-04-21T21:16:54.711Z,6.90
2023-04-21T21:19:21.526Z,5.23
2023-04-21T21:21:48.233Z,7.30
2023-04-21T21:28:15.134Z,4.80
2023-04-21T21:30:41.985Z,5.27
2023-04-21T21:33:08.714Z,4.50
2023-04-21T21:35:36.236Z,5.27
2023-04-21T21:38:36.296Z,6.10
2023-04-21T21:41:03.101Z,5.33
2023-04-21T21:43:29.868Z,5.77
2023-04-21T21:45:56.488Z,5.97
2023-04-21T21:48:23.322Z,5.40
2023-04-21T21:50:50.175Z,5.93
2023-04-21T21:53:17.117Z,5.00
2023-04-21T21:55:44.244Z,4.77
2023-04-21T21:58:11.022Z,5.67
2023-04-21T22:00:39.298Z,5.60
2023-04-21T22:03:06.947Z,5.73
2023-04-21T22:05:33.900Z,4.80
2023-04-21T22:08:36.143Z,7.17
2023-04-21T22:11:03.913Z,6.57
2023-04-21T22:13:30.842Z,6.90
2023-04-21T22:15:57.657Z,6.80
2023-04-21T22:19:19.428Z,4.67
2023-04-21T22:21:46.325Z,4.73
2023-04-21T22:24:13.365Z,4.60
2023-04-21T22:26:40.089Z,4.87
2023-04-21T22:29:07.137Z,4.03
2023-04-21T22:31:34.204Z,4.40
2023-04-21T22:34:01.284Z,7.07
2023-04-21T22:36:41.233Z,5.47
2023-04-21T22:39:07.991Z,5.77
2023-04-21T22:41:35.139Z,5.17
2023-04-21T22:48:02.534Z,5.93
2023-04-21T22:50:29.614Z,5.10
2023-04-21T22:52:57.016Z,4.50
2023-04-21T22:55:25.899Z,4.37
2023-04-21T22:57:52.666Z,6.10
2023-04-21T23:00:31.819Z,6.13
2023-04-21T23:02:58.850Z,5.93
2023-04-21T23:05:25.634Z,5.37
2023-04-21T23:07:52.913Z,4.53
2023-04-21T23:10:19.860Z,4.37
2023-04-21T23:12:46.720Z,4.90
2023-04-21T23:15:13.762Z,4.93
2023-04-21T23:17:40.665Z,5.27
2023-04-21T23:20:08.468Z,6.43
2023-04-21T23:22:35.480Z,4.90
2023-04-21T23:29:02.145Z,4.73
2023-04-21T23:31:30.780Z,5.60
2023-04-21T23:34:00.281Z,4.50
2023-04-21T23:36:27.184Z,5.67
2023-04-21T23:38:56.322Z,4.90
2023-04-21T23:41:23.424Z,4.83
2023-04-21T23:43:50.178Z,4.60
2023-04-21T23:46:17.359Z,6.23
2023-04-21T23:48:44.277Z,5.43
2023-04-21T23:51:11.110Z,4.57
2023-04-21T23:53:38.087Z,5.20
2023-04-21T23:56:04.943Z,5.33
2023-04-21T23:58:31.895Z,4.60
